This is the latest recevied weather packets stored in our database for station/object K5MGY. If no packets are shown the sender has not sent any weather packets the latest 1 day(s).
| Time | Temp. | Humidity | Pressure | Rain* | Wind** | Luminosity | Snow |
|---|---|---|---|---|---|---|---|
| 1836274790 | 26.67° C | 67% | 1040 hPa | 0 mm | 0 m/s | 0 W/m² | - |
| 1836274488 | 27.22° C | 66% | 1039.9 hPa | 0 mm | 0.45 m/s, 247° | 0 W/m² | - |
| 1836274342 | 26.67° C | 67% | 1040 hPa | 0 mm | 0 m/s | 0 W/m² | - |
| 1836274186 | 27.22° C | 66% | 1040.2 hPa | 0 mm | 0 m/s | 0 W/m² | - |
| 1836273886 | 27.22° C | 65% | 1039.8 hPa | 0 mm | 0 m/s | 0 W/m² | - |
| 1778042866 | 20° C | 72% | 1033.2 hPa | 0 mm | 0 m/s | 0 W/m² | - |
| 1778042564 | 20° C | 72% | 1033 hPa | 0 mm | 0 m/s | 0 W/m² | - |
| 1778042261 | 20.56° C | 71% | 1033.1 hPa | 0 mm | 0.45 m/s, 293° | 0 W/m² | - |
| 1778041958 | 20.56° C | 71% | 1033.3 hPa | 0 mm | 0 m/s | 0 W/m² | - |
| 1778041657 | 20.56° C | 71% | 1033.2 hPa | 0 mm | 0.45 m/s, 251° | 0 W/m² | - |
| 1778041355 | 21.11° C | 71% | 1033.3 hPa | 0 mm | 0.45 m/s, 248° | 0 W/m² | - |
| 1778041053 | 21.11° C | 70% | 1033.3 hPa | 0 mm | 0 m/s | 0 W/m² | - |
| 1778040750 | 21.11° C | 70% | 1033.2 hPa | 0 mm | 0 m/s | 0 W/m² | - |
| 1778040448 | 21.11° C | 70% | 1033.2 hPa | 0 mm | 0 m/s | 0 W/m² | - |
| 1778040144 | 21.11° C | 70% | 1032.9 hPa | 0 mm | 0 m/s | 0 W/m² | - |
| 1778039841 | 21.11° C | 70% | 1033 hPa | 0 mm | 0.89 m/s, 253° | 0 W/m² | - |
| 1778039538 | 21.11° C | 69% | 1032.5 hPa | 0 mm | 0 m/s | 0 W/m² | - |
| 1778039235 | 21.11° C | 69% | 1032.5 hPa | 0 mm | 0.45 m/s, 203° | 0 W/m² | - |
| 1778038932 | 21.11° C | 68% | 1032.5 hPa | 0 mm | 0 m/s | 0 W/m² | - |
| 1778038629 | 21.67° C | 68% | 1032.5 hPa | 0 mm | 0.45 m/s, 275° | 0 W/m² | - |
| 1778038326 | 21.67° C | 67% | 1032.3 hPa | 0 mm | 0 m/s | 0 W/m² | - |
| 1778038023 | 21.67° C | 67% | 1032 hPa | 0 mm | 0 m/s | 0 W/m² | - |
| 1778037720 | 21.67° C | 67% | 1032 hPa | 0 mm | 0 m/s | 0 W/m² | - |
| 1778037417 | 21.67° C | 66% | 1032.1 hPa | 0 mm | 0 m/s | 0 W/m² | - |
| 1778037114 | 21.67° C | 67% | 1032.2 hPa | 0 mm | 0 m/s | 0 W/m² | - |
* Rain latest hour (hover to see other rain measurements)
** Current wind speed in m/s (hover to see current wind gust speed)